sensor_id;sensor_type;location;lat;lon;timestamp;pressure;altitude;pressure_sealevel;temperature;humidity
27712;BME280;2377;51.734;8.950;2023-02-18T00:02:16;98264.78;;;8.78;98.74
27712;BME280;2377;51.734;8.950;2023-02-18T00:04:43;98268.16;;;8.85;99.07
27712;BME280;2377;51.734;8.950;2023-02-18T00:07:10;98270.28;;;8.81;100.00
27712;BME280;2377;51.734;8.950;2023-02-18T00:09:38;98261.72;;;8.89;100.00
27712;BME280;2377;51.734;8.950;2023-02-18T00:12:06;98260.13;;;8.88;100.00
27712;BME280;2377;51.734;8.950;2023-02-18T00:14:33;98255.22;;;8.86;100.00
27712;BME280;2377;51.734;8.950;2023-02-18T00:17:00;98264.47;;;8.94;100.00
27712;BME280;2377;51.734;8.950;2023-02-18T00:19:27;98251.31;;;8.91;100.00
27712;BME280;2377;51.734;8.950;2023-02-18T00:21:54;98256.63;;;8.89;100.00
27712;BME280;2377;51.734;8.950;2023-02-18T00:24:22;98261.72;;;8.96;100.00
27712;BME280;2377;51.734;8.950;2023-02-18T00:26:51;98255.44;;;8.98;100.00
27712;BME280;2377;51.734;8.950;2023-02-18T00:29:19;98251.94;;;8.99;100.00
27712;BME280;2377;51.734;8.950;2023-02-18T00:31:46;98254.31;;;9.01;100.00
27712;BME280;2377;51.734;8.950;2023-02-18T00:34:13;98252.31;;;9.03;100.00
27712;BME280;2377;51.734;8.950;2023-02-18T00:36:41;98252.31;;;8.96;100.00
27712;BME280;2377;51.734;8.950;2023-02-18T00:39:10;98257.06;;;9.06;100.00
27712;BME280;2377;51.734;8.950;2023-02-18T00:41:38;98259.00;;;9.04;100.00
27712;BME280;2377;51.734;8.950;2023-02-18T00:44:05;98244.31;;;9.06;100.00
27712;BME280;2377;51.734;8.950;2023-02-18T00:46:34;98246.47;;;9.09;100.00
27712;BME280;2377;51.734;8.950;2023-02-18T00:49:03;98237.63;;;9.05;100.00
27712;BME280;2377;51.734;8.950;2023-02-18T00:51:30;98233.53;;;9.04;100.00
27712;BME280;2377;51.734;8.950;2023-02-18T00:53:58;98235.28;;;9.10;100.00
27712;BME280;2377;51.734;8.950;2023-02-18T00:56:25;98229.03;;;9.13;100.00
27712;BME280;2377;51.734;8.950;2023-02-18T00:58:52;98230.41;;;9.15;100.00
27712;BME280;2377;51.734;8.950;2023-02-18T01:01:19;98231.19;;;9.16;100.00
27712;BME280;2377;51.734;8.950;2023-02-18T01:03:48;98230.00;;;9.12;100.00
27712;BME280;2377;51.734;8.950;2023-02-18T01:06:16;98238.84;;;9.16;100.00
27712;BME280;2377;51.734;8.950;2023-02-18T01:08:43;98229.63;;;9.08;100.00
27712;BME280;2377;51.734;8.950;2023-02-18T01:11:12;98233.34;;;9.12;100.00
27712;BME280;2377;51.734;8.950;2023-02-18T01:13:40;98236.69;;;9.13;100.00
27712;BME280;2377;51.734;8.950;2023-02-18T01:16:08;98230.59;;;9.14;100.00
27712;BME280;2377;51.734;8.950;2023-02-18T01:18:36;98243.16;;;9.22;100.00
27712;BME280;2377;51.734;8.950;2023-02-18T01:21:06;98240.06;;;9.20;100.00
27712;BME280;2377;51.734;8.950;2023-02-18T01:23:33;98245.16;;;9.20;100.00
27712;BME280;2377;51.734;8.950;2023-02-18T01:26:00;98234.94;;;9.20;100.00
27712;BME280;2377;51.734;8.950;2023-02-18T01:28:28;98229.19;;;9.04;100.00
27712;BME280;2377;51.734;8.950;2023-02-18T01:30:55;98226.50;;;9.13;100.00
27712;BME280;2377;51.734;8.950;2023-02-18T01:33:22;98233.56;;;9.17;100.00
27712;BME280;2377;51.734;8.950;2023-02-18T01:35:51;98224.50;;;9.15;100.00
27712;BME280;2377;51.734;8.950;2023-02-18T01:38:20;98222.59;;;9.23;100.00
27712;BME280;2377;51.734;8.950;2023-02-18T01:40:50;98231.22;;;9.22;100.00
27712;BME280;2377;51.734;8.950;2023-02-18T01:43:18;98223.38;;;9.17;100.00
27712;BME280;2377;51.734;8.950;2023-02-18T01:45:58;98220.22;;;9.15;100.00
27712;BME280;2377;51.734;8.950;2023-02-18T01:48:31;98225.72;;;9.19;100.00
27712;BME280;2377;51.734;8.950;2023-02-18T01:51:04;98219.66;;;9.20;100.00
27712;BME280;2377;51.734;8.950;2023-02-18T01:53:44;98215.72;;;9.24;100.00
27712;BME280;2377;51.734;8.950;2023-02-18T01:56:19;98217.28;;;9.25;100.00
27712;BME280;2377;51.734;8.950;2023-02-18T01:58:47;98223.34;;;9.24;100.00
27712;BME280;2377;51.734;8.950;2023-02-18T02:01:15;98212.41;;;9.30;100.00
27712;BME280;2377;51.734;8.950;2023-02-18T02:03:42;98211.63;;;9.36;100.00
27712;BME280;2377;51.734;8.950;2023-02-18T02:06:15;98206.88;;;9.26;100.00
27712;BME280;2377;51.734;8.950;2023-02-18T02:08:46;98204.91;;;9.22;100.00
27712;BME280;2377;51.734;8.950;2023-02-18T02:11:35;98196.47;;;9.21;100.00
27712;BME280;2377;51.734;8.950;2023-02-18T02:14:28;98199.03;;;9.21;100.00
27712;BME280;2377;51.734;8.950;2023-02-18T02:17:04;98189.25;;;9.25;100.00
27712;BME280;2377;51.734;8.950;2023-02-18T02:23:39;98179.03;;;9.18;100.00
27712;BME280;2377;51.734;8.950;2023-02-18T02:30:10;98173.53;;;9.21;100.00
27712;BME280;2377;51.734;8.950;2023-02-18T02:36:09;98175.13;;;9.29;100.00
27712;BME280;2377;51.734;8.950;2023-02-18T02:38:48;98186.88;;;9.30;100.00
27712;BME280;2377;51.734;8.950;2023-02-18T02:41:34;98171.19;;;9.33;100.00
27712;BME280;2377;51.734;8.950;2023-02-18T02:44:17;98172.00;;;9.34;100.00
27712;BME280;2377;51.734;8.950;2023-02-18T02:46:49;98172.97;;;9.39;100.00
27712;BME280;2377;51.734;8.950;2023-02-18T02:49:31;98156.28;;;9.37;100.00
27712;BME280;2377;51.734;8.950;2023-02-18T02:52:05;98153.75;;;9.43;100.00
27712;BME280;2377;51.734;8.950;2023-02-18T02:54:34;98154.72;;;9.42;100.00
27712;BME280;2377;51.734;8.950;2023-02-18T02:57:08;98148.84;;;9.48;100.00
27712;BME280;2377;51.734;8.950;2023-02-18T02:59:41;98139.03;;;9.45;100.00
27712;BME280;2377;51.734;8.950;2023-02-18T03:02:27;98123.31;;;9.42;100.00
27712;BME280;2377;51.734;8.950;2023-02-18T03:05:14;98131.38;;;9.45;100.00
27712;BME280;2377;51.734;8.950;2023-02-18T03:10:53;98116.84;;;9.46;100.00
27712;BME280;2377;51.734;8.950;2023-02-18T03:13:39;98100.94;;;9.50;100.00
27712;BME280;2377;51.734;8.950;2023-02-18T03:16:21;98095.66;;;9.45;100.00
27712;BME280;2377;51.734;8.950;2023-02-18T03:18:57;98093.88;;;9.52;100.00
27712;BME280;2377;51.734;8.950;2023-02-18T03:21:31;98090.75;;;9.50;100.00
27712;BME280;2377;51.734;8.950;2023-02-18T03:24:06;98082.69;;;9.53;100.00
27712;BME280;2377;51.734;8.950;2023-02-18T03:26:39;98079.34;;;9.53;100.00
27712;BME280;2377;51.734;8.950;2023-02-18T03:29:11;98077.00;;;9.51;100.00
27712;BME280;2377;51.734;8.950;2023-02-18T03:31:44;98080.72;;;9.56;100.00
27712;BME280;2377;51.734;8.950;2023-02-18T03:34:17;98071.47;;;9.55;100.00
27712;BME280;2377;51.734;8.950;2023-02-18T03:36:46;98070.31;;;9.57;100.00
27712;BME280;2377;51.734;8.950;2023-02-18T03:39:18;98067.97;;;9.62;100.00
27712;BME280;2377;51.734;8.950;2023-02-18T03:41:45;98062.63;;;9.64;100.00
27712;BME280;2377;51.734;8.950;2023-02-18T03:44:13;98056.38;;;9.53;100.00
27712;BME280;2377;51.734;8.950;2023-02-18T03:46:43;98058.13;;;9.66;100.00
27712;BME280;2377;51.734;8.950;2023-02-18T03:49:13;98056.75;;;9.63;100.00
27712;BME280;2377;51.734;8.950;2023-02-18T03:51:41;98052.81;;;9.67;100.00
27712;BME280;2377;51.734;8.950;2023-02-18T03:54:09;98048.50;;;9.68;100.00
27712;BME280;2377;51.734;8.950;2023-02-18T03:56:39;98049.69;;;9.59;100.00
27712;BME280;2377;51.734;8.950;2023-02-18T03:59:08;98054.19;;;9.70;100.00
27712;BME280;2377;51.734;8.950;2023-02-18T04:01:35;98048.66;;;9.73;100.00
27712;BME280;2377;51.734;8.950;2023-02-18T04:04:02;98047.91;;;9.72;100.00
27712;BME280;2377;51.734;8.950;2023-02-18T04:06:29;98044.38;;;9.67;100.00
27712;BME280;2377;51.734;8.950;2023-02-18T04:08:57;98047.13;;;9.72;100.00
27712;BME280;2377;51.734;8.950;2023-02-18T04:11:24;98043.19;;;9.69;100.00
27712;BME280;2377;51.734;8.950;2023-02-18T04:13:52;98039.66;;;9.64;100.00
27712;BME280;2377;51.734;8.950;2023-02-18T04:16:19;98030.97;;;9.78;100.00
27712;BME280;2377;51.734;8.950;2023-02-18T04:18:46;98036.34;;;9.63;100.00
27712;BME280;2377;51.734;8.950;2023-02-18T04:21:13;98032.16;;;9.76;100.00
27712;BME280;2377;51.734;8.950;2023-02-18T04:23:40;98033.00;;;9.63;100.00
27712;BME280;2377;51.734;8.950;2023-02-18T04:26:07;98034.19;;;9.67;100.00
27712;BME280;2377;51.734;8.950;2023-02-18T04:28:35;98033.97;;;9.62;100.00
27712;BME280;2377;51.734;8.950;2023-02-18T04:31:03;98025.53;;;9.68;100.00
27712;BME280;2377;51.734;8.950;2023-02-18T04:33:30;98019.84;;;9.66;100.00
27712;BME280;2377;51.734;8.950;2023-02-18T04:35:58;98013.72;;;9.73;100.00
27712;BME280;2377;51.734;8.950;2023-02-18T04:38:25;98011.38;;;9.72;100.00
27712;BME280;2377;51.734;8.950;2023-02-18T04:40:52;98006.69;;;9.69;100.00
27712;BME280;2377;51.734;8.950;2023-02-18T04:43:19;98003.94;;;9.64;100.00
27712;BME280;2377;51.734;8.950;2023-02-18T04:45:46;98017.69;;;9.69;100.00
27712;BME280;2377;51.734;8.950;2023-02-18T04:48:14;98015.50;;;9.73;100.00
27712;BME280;2377;51.734;8.950;2023-02-18T04:50:43;98004.69;;;9.71;100.00
27712;BME280;2377;51.734;8.950;2023-02-18T04:53:10;98006.66;;;9.76;100.00
27712;BME280;2377;51.734;8.950;2023-02-18T04:55:37;97995.47;;;9.77;100.00
27712;BME280;2377;51.734;8.950;2023-02-18T04:58:04;97984.28;;;9.71;100.00
27712;BME280;2377;51.734;8.950;2023-02-18T05:00:31;97998.84;;;9.64;100.00
27712;BME280;2377;51.734;8.950;2023-02-18T05:02:58;97988.78;;;9.76;100.00
27712;BME280;2377;51.734;8.950;2023-02-18T05:05:26;97986.97;;;9.83;100.00
27712;BME280;2377;51.734;8.950;2023-02-18T05:07:53;97980.31;;;9.82;100.00
27712;BME280;2377;51.734;8.950;2023-02-18T05:10:21;97975.22;;;9.82;100.00
27712;BME280;2377;51.734;8.950;2023-02-18T05:12:48;97981.88;;;9.83;100.00
27712;BME280;2377;51.734;8.950;2023-02-18T05:15:15;97976.00;;;9.82;100.00
27712;BME280;2377;51.734;8.950;2023-02-18T05:17:42;97981.50;;;9.86;100.00
27712;BME280;2377;51.734;8.950;2023-02-18T05:20:11;97965.75;;;9.89;100.00
27712;BME280;2377;51.734;8.950;2023-02-18T05:22:39;97965.34;;;9.92;100.00
27712;BME280;2377;51.734;8.950;2023-02-18T05:25:07;97975.38;;;9.93;100.00
27712;BME280;2377;51.734;8.950;2023-02-18T05:27:34;97959.88;;;9.88;100.00
27712;BME280;2377;51.734;8.950;2023-02-18T05:30:01;97967.38;;;9.83;100.00
27712;BME280;2377;51.734;8.950;2023-02-18T05:32:28;97964.19;;;9.88;100.00
27712;BME280;2377;51.734;8.950;2023-02-18T05:34:55;97962.66;;;9.80;100.00
27712;BME280;2377;51.734;8.950;2023-02-18T05:37:23;97959.09;;;9.88;100.00
27712;BME280;2377;51.734;8.950;2023-02-18T05:39:51;97948.88;;;9.88;100.00
27712;BME280;2377;51.734;8.950;2023-02-18T05:42:18;97953.78;;;9.89;100.00
27712;BME280;2377;51.734;8.950;2023-02-18T05:44:45;97948.47;;;9.91;100.00
27712;BME280;2377;51.734;8.950;2023-02-18T05:47:12;97952.22;;;9.88;100.00
27712;BME280;2377;51.734;8.950;2023-02-18T05:49:41;97951.19;;;9.96;100.00
27712;BME280;2377;51.734;8.950;2023-02-18T05:52:09;97949.25;;;9.91;100.00
27712;BME280;2377;51.734;8.950;2023-02-18T05:54:38;97936.06;;;9.94;100.00
27712;BME280;2377;51.734;8.950;2023-02-18T05:57:07;97939.47;;;9.82;100.00
27712;BME280;2377;51.734;8.950;2023-02-18T05:59:34;97931.97;;;9.93;100.00
27712;BME280;2377;51.734;8.950;2023-02-18T06:02:01;97924.84;;;10.02;100.00
27712;BME280;2377;51.734;8.950;2023-02-18T06:04:28;97935.69;;;9.98;100.00
27712;BME280;2377;51.734;8.950;2023-02-18T06:06:55;97916.81;;;9.99;100.00
27712;BME280;2377;51.734;8.950;2023-02-18T06:09:22;97917.56;;;9.99;100.00
27712;BME280;2377;51.734;8.950;2023-02-18T06:11:50;97918.41;;;9.93;100.00
27712;BME280;2377;51.734;8.950;2023-02-18T06:14:18;97912.69;;;9.98;100.00
27712;BME280;2377;51.734;8.950;2023-02-18T06:16:45;97905.22;;;9.96;100.00
27712;BME280;2377;51.734;8.950;2023-02-18T06:19:12;97901.53;;;9.85;100.00
27712;BME280;2377;51.734;8.950;2023-02-18T06:21:39;97907.00;;;9.95;100.00
27712;BME280;2377;51.734;8.950;2023-02-18T06:24:06;97894.41;;;10.01;100.00
27712;BME280;2377;51.734;8.950;2023-02-18T06:26:34;97898.97;;;9.92;100.00
27712;BME280;2377;51.734;8.950;2023-02-18T06:29:01;97893.66;;;9.93;100.00
27712;BME280;2377;51.734;8.950;2023-02-18T06:31:30;97892.88;;;9.93;100.00
27712;BME280;2377;51.734;8.950;2023-02-18T06:33:57;97884.03;;;9.95;100.00
27712;BME280;2377;51.734;8.950;2023-02-18T06:36:24;97894.41;;;10.01;100.00
27712;BME280;2377;51.734;8.950;2023-02-18T06:38:51;97893.81;;;9.99;100.00
27712;BME280;2377;51.734;8.950;2023-02-18T06:41:19;97891.03;;;10.07;100.00
27712;BME280;2377;51.734;8.950;2023-02-18T06:43:46;97885.53;;;10.03;100.00
27712;BME280;2377;51.734;8.950;2023-02-18T06:46:13;97877.97;;;9.90;100.00
27712;BME280;2377;51.734;8.950;2023-02-18T06:48:41;97878.50;;;9.99;100.00
27712;BME280;2377;51.734;8.950;2023-02-18T06:51:08;97860.84;;;9.97;100.00
27712;BME280;2377;51.734;8.950;2023-02-18T06:53:36;97861.06;;;9.95;100.00
27712;BME280;2377;51.734;8.950;2023-02-18T06:56:03;97871.84;;;9.98;100.00
27712;BME280;2377;51.734;8.950;2023-02-18T06:58:30;97868.72;;;9.95;100.00
27712;BME280;2377;51.734;8.950;2023-02-18T07:00:58;97872.66;;;9.91;100.00
27712;BME280;2377;51.734;8.950;2023-02-18T07:03:25;97879.69;;;9.96;100.00
27712;BME280;2377;51.734;8.950;2023-02-18T07:05:53;97875.75;;;10.00;100.00
27712;BME280;2377;51.734;8.950;2023-02-18T07:08:20;97878.16;;;9.95;100.00
27712;BME280;2377;51.734;8.950;2023-02-18T07:10:47;97873.97;;;10.01;100.00
27712;BME280;2377;51.734;8.950;2023-02-18T07:13:15;97873.56;;;10.04;100.00
27712;BME280;2377;51.734;8.950;2023-02-18T07:15:42;97877.88;;;10.03;100.00
27712;BME280;2377;51.734;8.950;2023-02-18T07:18:09;97870.69;;;9.93;100.00
27712;BME280;2377;51.734;8.950;2023-02-18T07:20:36;97876.78;;;9.92;100.00
27712;BME280;2377;51.734;8.950;2023-02-18T07:23:05;97879.72;;;9.89;100.00
27712;BME280;2377;51.734;8.950;2023-02-18T07:25:32;97876.78;;;9.92;100.00
27712;BME280;2377;51.734;8.950;2023-02-18T07:27:59;97874.78;;;9.94;100.00
27712;BME280;2377;51.734;8.950;2023-02-18T07:30:26;97872.66;;;9.91;100.00
27712;BME280;2377;51.734;8.950;2023-02-18T07:32:53;97866.34;;;9.94;100.00
27712;BME280;2377;51.734;8.950;2023-02-18T07:35:20;97859.28;;;9.96;100.00
27712;BME280;2377;51.734;8.950;2023-02-18T07:37:48;97863.59;;;9.95;100.00
27712;BME280;2377;51.734;8.950;2023-02-18T07:40:20;97861.63;;;9.98;100.00
27712;BME280;2377;51.734;8.950;2023-02-18T07:42:48;97855.31;;;10.00;100.00
27712;BME280;2377;51.734;8.950;2023-02-18T07:45:15;97853.81;;;9.92;100.00
27712;BME280;2377;51.734;8.950;2023-02-18T07:47:42;97861.69;;;9.84;100.00
27712;BME280;2377;51.734;8.950;2023-02-18T07:50:13;97855.78;;;9.90;100.00
27712;BME280;2377;51.734;8.950;2023-02-18T07:52:40;97838.31;;;9.87;100.00
27712;BME280;2377;51.734;8.950;2023-02-18T07:55:08;97863.19;;;9.99;100.00
27712;BME280;2377;51.734;8.950;2023-02-18T07:57:36;97854.19;;;9.89;100.00
27712;BME280;2377;51.734;8.950;2023-02-18T08:00:22;97863.03;;;9.93;100.00
27712;BME280;2377;51.734;8.950;2023-02-18T08:02:49;97863.78;;;9.94;100.00
27712;BME280;2377;51.734;8.950;2023-02-18T08:05:17;97862.25;;;9.93;100.00
27712;BME280;2377;51.734;8.950;2023-02-18T08:07:44;97867.53;;;9.91;100.00
27712;BME280;2377;51.734;8.950;2023-02-18T08:10:11;97854.59;;;9.93;100.00
27712;BME280;2377;51.734;8.950;2023-02-18T08:12:40;97858.56;;;9.82;100.00
27712;BME280;2377;51.734;8.950;2023-02-18T08:15:08;97857.13;;;9.93;100.00
27712;BME280;2377;51.734;8.950;2023-02-18T08:17:36;97870.91;;;9.85;100.00
27712;BME280;2377;51.734;8.950;2023-02-18T08:20:04;97850.09;;;9.88;100.00
27712;BME280;2377;51.734;8.950;2023-02-18T08:22:31;97859.47;;;9.94;100.00
27712;BME280;2377;51.734;8.950;2023-02-18T08:24:58;97839.09;;;9.88;100.00
27712;BME280;2377;51.734;8.950;2023-02-18T08:27:25;97869.31;;;9.91;100.00
27712;BME280;2377;51.734;8.950;2023-02-18T08:29:54;97848.13;;;9.90;100.00
27712;BME280;2377;51.734;8.950;2023-02-18T08:32:21;97845.78;;;9.89;100.00
27712;BME280;2377;51.734;8.950;2023-02-18T08:34:48;97845.97;;;9.87;100.00
27712;BME280;2377;51.734;8.950;2023-02-18T08:37:15;97853.47;;;9.82;100.00
27712;BME280;2377;51.734;8.950;2023-02-18T08:39:42;97851.06;;;9.87;100.00
27712;BME280;2377;51.734;8.950;2023-02-18T08:42:09;97855.03;;;9.83;100.00
27712;BME280;2377;51.734;8.950;2023-02-18T08:44:36;97850.16;;;9.75;100.00
27712;BME280;2377;51.734;8.950;2023-02-18T08:47:05;97843.88;;;9.78;100.00
27712;BME280;2377;51.734;8.950;2023-02-18T08:49:32;97835.59;;;9.82;100.00
27712;BME280;2377;51.734;8.950;2023-02-18T08:52:01;97843.22;;;9.89;100.00
27712;BME280;2377;51.734;8.950;2023-02-18T08:54:29;97845.78;;;9.89;100.00
27712;BME280;2377;51.734;8.950;2023-02-18T08:56:56;97855.41;;;9.87;100.00
27712;BME280;2377;51.734;8.950;2023-02-18T08:59:24;97846.38;;;9.84;100.00
27712;BME280;2377;51.734;8.950;2023-02-18T09:01:53;97847.25;;;9.71;100.00
27712;BME280;2377;51.734;8.950;2023-02-18T09:04:21;97849.94;;;9.83;100.00
27712;BME280;2377;51.734;8.950;2023-02-18T09:06:48;97823.28;;;9.72;100.00
27712;BME280;2377;51.734;8.950;2023-02-18T09:09:16;97840.13;;;9.80;100.00
27712;BME280;2377;51.734;8.950;2023-02-18T09:11:44;97853.69;;;9.81;100.00
27712;BME280;2377;51.734;8.950;2023-02-18T09:14:13;97857.03;;;9.81;100.00
27712;BME280;2377;51.734;8.950;2023-02-18T09:16:41;97846.84;;;9.74;100.00
27712;BME280;2377;51.734;8.950;2023-02-18T09:19:09;97850.75;;;9.77;100.00
27712;BME280;2377;51.734;8.950;2023-02-18T09:21:37;97858.66;;;9.69;100.00
27712;BME280;2377;51.734;8.950;2023-02-18T09:24:05;97859.88;;;9.60;100.00
27712;BME280;2377;51.734;8.950;2023-02-18T09:26:37;97855.19;;;9.57;100.00
27712;BME280;2377;51.734;8.950;2023-02-18T09:29:04;97872.25;;;9.56;100.00
27712;BME280;2377;51.734;8.950;2023-02-18T09:31:31;97861.28;;;9.56;100.00
27712;BME280;2377;51.734;8.950;2023-02-18T09:34:03;97862.59;;;9.65;100.00
27712;BME280;2377;51.734;8.950;2023-02-18T09:36:31;97838.28;;;9.62;100.00
27712;BME280;2377;51.734;8.950;2023-02-18T09:39:00;97853.19;;;9.59;100.00
27712;BME280;2377;51.734;8.950;2023-02-18T09:41:36;97837.88;;;9.59;100.00
27712;BME280;2377;51.734;8.950;2023-02-18T09:44:10;97831.63;;;9.55;100.00
27712;BME280;2377;51.734;8.950;2023-02-18T09:46:46;97838.72;;;9.52;100.00
27712;BME280;2377;51.734;8.950;2023-02-18T09:49:17;97816.56;;;9.46;100.00
27712;BME280;2377;51.734;8.950;2023-02-18T09:51:46;97845.72;;;9.64;100.00
27712;BME280;2377;51.734;8.950;2023-02-18T09:54:18;97834.16;;;9.61;100.00
27712;BME280;2377;51.734;8.950;2023-02-18T09:56:47;97833.56;;;9.59;100.00
27712;BME280;2377;51.734;8.950;2023-02-18T09:59:18;97836.94;;;9.60;100.00
27712;BME280;2377;51.734;8.950;2023-02-18T10:01:49;97820.81;;;9.59;100.00
27712;BME280;2377;51.734;8.950;2023-02-18T10:04:22;97824.16;;;9.60;100.00
27712;BME280;2377;51.734;8.950;2023-02-18T10:06:52;97838.06;;;9.64;100.00
27712;BME280;2377;51.734;8.950;2023-02-18T10:09:26;97833.53;;;9.66;100.00
27712;BME280;2377;51.734;8.950;2023-02-18T10:11:57;97827.66;;;9.65;100.00
27712;BME280;2377;51.734;8.950;2023-02-18T10:14:27;97813.53;;;9.63;100.00
27712;BME280;2377;51.734;8.950;2023-02-18T10:16:56;97813.97;;;9.60;100.00
27712;BME280;2377;51.734;8.950;2023-02-18T10:19:30;97826.53;;;9.55;100.00
27712;BME280;2377;51.734;8.950;2023-02-18T10:22:01;97822.00;;;9.57;100.00
27712;BME280;2377;51.734;8.950;2023-02-18T10:24:34;97827.78;;;9.45;100.00
27712;BME280;2377;51.734;8.950;2023-02-18T10:27:06;97819.72;;;9.48;100.00
27712;BME280;2377;51.734;8.950;2023-02-18T10:29:34;97793.63;;;9.46;100.00
27712;BME280;2377;51.734;8.950;2023-02-18T10:32:11;97821.25;;;9.49;100.00
27712;BME280;2377;51.734;8.950;2023-02-18T10:34:48;97830.00;;;9.28;100.00
27712;BME280;2377;51.734;8.950;2023-02-18T10:37:56;97838.81;;;9.32;100.00
27712;BME280;2377;51.734;8.950;2023-02-18T10:40:35;97849.56;;;9.41;100.00
27712;BME280;2377;51.734;8.950;2023-02-18T10:43:18;97821.97;;;9.25;100.00
27712;BME280;2377;51.734;8.950;2023-02-18T10:45:57;97832.94;;;9.32;100.00
27712;BME280;2377;51.734;8.950;2023-02-18T10:49:02;97816.84;;;9.31;100.00
27712;BME280;2377;51.734;8.950;2023-02-18T10:51:34;97838.66;;;9.21;100.00
27712;BME280;2377;51.734;8.950;2023-02-18T10:54:03;97833.50;;;9.34;100.00
27712;BME280;2377;51.734;8.950;2023-02-18T10:56:39;97828.25;;;9.29;100.00
27712;BME280;2377;51.734;8.950;2023-02-18T10:59:13;97826.69;;;9.21;100.00
27712;BME280;2377;51.734;8.950;2023-02-18T11:01:42;97826.31;;;9.18;100.00
27712;BME280;2377;51.734;8.950;2023-02-18T11:04:17;97843.19;;;9.12;100.00
27712;BME280;2377;51.734;8.950;2023-02-18T11:06:47;97826.72;;;9.15;100.00
27712;BME280;2377;51.734;8.950;2023-02-18T11:09:30;97823.22;;;9.09;100.00
27712;BME280;2377;51.734;8.950;2023-02-18T11:12:05;97831.06;;;9.07;100.00
27712;BME280;2377;51.734;8.950;2023-02-18T11:14:39;97815.41;;;8.97;100.00
27712;BME280;2377;51.734;8.950;2023-02-18T11:17:19;97826.97;;;9.00;100.00
27712;BME280;2377;51.734;8.950;2023-02-18T11:19:56;97839.13;;;9.04;100.00
27712;BME280;2377;51.734;8.950;2023-02-18T11:22:29;97845.22;;;9.03;100.00
27712;BME280;2377;51.734;8.950;2023-02-18T11:24:59;97829.91;;;9.03;100.00
27712;BME280;2377;51.734;8.950;2023-02-18T11:27:39;97826.00;;;9.01;100.00
27712;BME280;2377;51.734;8.950;2023-02-18T11:30:19;97824.81;;;9.03;100.00
27712;BME280;2377;51.734;8.950;2023-02-18T11:32:49;97827.19;;;8.92;100.00
27712;BME280;2377;51.734;8.950;2023-02-18T11:35:22;97816.00;;;8.99;100.00
27712;BME280;2377;51.734;8.950;2023-02-18T11:37:51;97805.97;;;9.04;100.00
27712;BME280;2377;51.734;8.950;2023-02-18T11:40:22;97819.50;;;8.98;100.00
27712;BME280;2377;51.734;8.950;2023-02-18T11:43:03;97813.63;;;8.98;100.00
27712;BME280;2377;51.734;8.950;2023-02-18T11:45:33;97797.75;;;9.02;100.00
27712;BME280;2377;51.734;8.950;2023-02-18T11:48:06;97831.47;;;8.98;100.00
27712;BME280;2377;51.734;8.950;2023-02-18T11:50:34;97815.06;;;8.87;100.00
27712;BME280;2377;51.734;8.950;2023-02-18T11:53:27;97784.47;;;8.87;100.00
27712;BME280;2377;51.734;8.950;2023-02-18T11:55:58;97808.78;;;8.89;100.00
27712;BME280;2377;51.734;8.950;2023-02-18T11:58:36;97828.91;;;9.04;100.00
27712;BME280;2377;51.734;8.950;2023-02-18T12:01:09;97815.81;;;8.94;100.00
27712;BME280;2377;51.734;8.950;2023-02-18T12:03:47;97815.25;;;8.79;100.00
27712;BME280;2377;51.734;8.950;2023-02-18T12:06:24;97810.41;;;8.71;100.00
27712;BME280;2377;51.734;8.950;2023-02-18T12:09:00;97817.97;;;8.91;100.00
27712;BME280;2377;51.734;8.950;2023-02-18T12:11:36;97810.56;;;8.89;100.00
27712;BME280;2377;51.734;8.950;2023-02-18T12:14:16;97805.25;;;8.84;100.00
27712;BME280;2377;51.734;8.950;2023-02-18T12:17:01;97826.03;;;8.87;100.00
27712;BME280;2377;51.734;8.950;2023-02-18T12:19:53;97814.88;;;8.82;100.00
27712;BME280;2377;51.734;8.950;2023-02-18T12:22:40;97824.09;;;8.83;100.00
27712;BME280;2377;51.734;8.950;2023-02-18T12:25:31;97815.06;;;8.80;100.00
27712;BME280;2377;51.734;8.950;2023-02-18T12:28:27;97822.13;;;8.85;100.00
27712;BME280;2377;51.734;8.950;2023-02-18T12:31:27;97811.16;;;8.78;100.00
27712;BME280;2377;51.734;8.950;2023-02-18T12:34:22;97808.38;;;8.86;100.00
27712;BME280;2377;51.734;8.950;2023-02-18T12:37:12;97804.31;;;8.72;100.00
27712;BME280;2377;51.734;8.950;2023-02-18T12:40:00;97809.38;;;8.85;100.00
27712;BME280;2377;51.734;8.950;2023-02-18T12:42:47;97774.09;;;8.82;100.00
27712;BME280;2377;51.734;8.950;2023-02-18T12:45:49;97827.41;;;8.83;100.00
27712;BME280;2377;51.734;8.950;2023-02-18T12:48:46;97804.28;;;8.85;100.00
27712;BME280;2377;51.734;8.950;2023-02-18T12:51:32;97801.72;;;8.85;100.00
27712;BME280;2377;51.734;8.950;2023-02-18T12:54:21;97786.84;;;8.82;100.00
27712;BME280;2377;51.734;8.950;2023-02-18T12:57:28;97804.47;;;8.83;100.00
27712;BME280;2377;51.734;8.950;2023-02-18T13:06:44;97815.69;;;8.76;100.00
27712;BME280;2377;51.734;8.950;2023-02-18T13:09:25;97826.81;;;8.75;100.00
27712;BME280;2377;51.734;8.950;2023-02-18T13:12:05;97809.59;;;8.70;100.00
27712;BME280;2377;51.734;8.950;2023-02-18T13:14:50;97827.63;;;8.82;100.00
27712;BME280;2377;51.734;8.950;2023-02-18T13:17:24;97836.41;;;8.86;100.00
27712;BME280;2377;51.734;8.950;2023-02-18T13:20:00;97821.53;;;8.89;100.00
27712;BME280;2377;51.734;8.950;2023-02-18T13:22:30;97822.53;;;8.82;100.00
27712;BME280;2377;51.734;8.950;2023-02-18T13:24:58;97834.44;;;8.88;100.00
27712;BME280;2377;51.734;8.950;2023-02-18T13:27:35;97839.56;;;8.88;100.00
27712;BME280;2377;51.734;8.950;2023-02-18T13:30:19;97829.97;;;8.77;100.00
27712;BME280;2377;51.734;8.950;2023-02-18T13:33:03;97830.19;;;8.82;100.00
27712;BME280;2377;51.734;8.950;2023-02-18T13:35:42;97823.28;;;8.89;100.00
27712;BME280;2377;51.734;8.950;2023-02-18T13:38:55;97828.19;;;8.84;100.00
27712;BME280;2377;51.734;8.950;2023-02-18T13:41:25;97814.47;;;8.85;100.00
27712;BME280;2377;51.734;8.950;2023-02-18T13:43:53;97827.78;;;8.94;100.00
27712;BME280;2377;51.734;8.950;2023-02-18T13:46:22;97810.16;;;8.85;100.00
27712;BME280;2377;51.734;8.950;2023-02-18T13:48:51;97839.13;;;8.98;100.00
27712;BME280;2377;51.734;8.950;2023-02-18T13:51:32;97830.69;;;8.97;100.00
27712;BME280;2377;51.734;8.950;2023-02-18T13:54:17;97829.16;;;8.96;100.00
27712;BME280;2377;51.734;8.950;2023-02-18T13:56:52;97837.34;;;8.98;100.00